Terminal Aerodrome Forecast
Issued by NWS

Home | Current Version | Previous Version | Text Only | Print | Product List | Glossary On
Versions: 1 2 3 4 5 6 7 8 9 10 11 12 13 14 15 16
000
FTUS43 KSGF 291900 AAA
TAFBBG
TAF AMD
KBBG 291945Z 2920/3018 03008KT P6SM VCTS BKN030CB
      TEMPO 2921/2923 4SM -TSRA BR SCT008 OVC020CB
     FM300000 15006KT 4SM -SHRA BR VCTS SCT005 OVC015CB
     FM300500 22005KT 4SM -SHRA BR VCTS OVC005CB
     FM300800 28005KT 5SM BR VCSH BKN004
     FM301200 32006KT 5SM BR BKN007 OVC015=

USA.gov is the U.S. government's official web portal to all federal, state and local government web resources and services.